Nearby METAR Reports

 

KOXC - Oxford/Waterbury, Connecticut, USA
Distance from station: SE 8mi, 12km
Updated: Sat, 18-Apr-2015 11:55am EDT
Clear
Clear
 Wind from NW
Wind: NW 5 mph , 7 km/h, Gust: 18 mph , 30 km/h
Temperature: 68°F , 20°C
Dew Point: 43°F , 6°C
Humidity: 40%
Barometer: 29.96 inHg , 1014.6 hPa
Clouds: Clear
Visibility: 10 miles , 16 km
2015/04/18 15:55 KOXC 181555Z 32004G16KT 270V350 10SM SKC 20/06 A2996
KDXR - Danbury, Connecticut, USA
Distance from station: SW 19mi, 30km
Updated: Sat, 18-Apr-2015 11:53am EDT
Clear
Clear
 Wind from varies
Wind: varies 7 mph , 11 km/h, Gust: 20 mph , 31 km/h
Temperature: 70°F , 21°C
Dew Point: 39°F , 4°C
Humidity: 33%
Barometer: 29.97 inHg , 1014.9 hPa
Clouds: Clear
Visibility: 10 miles , 16 km
2015/04/18 15:53 KDXR 181553Z VRB06G17KT 10SM CLR 21/04 A2997 RMK AO2 SLP146 T02060039
 
KMMK - Meriden, Connecticut, USA
Distance from station: E 20mi, 33km
Updated: Sat, 18-Apr-2015 11:53am EDT
Clear
Clear
 Wind from varies
Wind: varies 6 mph , 9 km/h
Temperature: 73°F , 23°C
Dew Point: 43°F , 6°C
Humidity: 33%
Barometer: 29.94 inHg , 1013.9 hPa
Clouds: Clear
Visibility: 10 miles , 16 km
2015/04/18 15:53 KMMK 181553Z AUTO VRB05KT 10SM CLR 23/06 A2994 RMK AO2 SLP138 T02280056 TSNO $
KBDR - Bridgeport, Connecticut, USA
Distance from station: S 27mi, 44km
Updated: Sat, 18-Apr-2015 11:52am EDT
Clear
Clear
 Wind from SW
Wind: SW 12 mph , 19 km/h
Temperature: 61°F , 16°C
Dew Point: 46°F , 8°C
Humidity: 59%
Barometer: 29.96 inHg , 1014.6 hPa
Clouds: Clear
Visibility: 10 miles , 16 km
2015/04/18 15:52 KBDR 181552Z 22010KT 10SM CLR 16/08 A2996 RMK AO2 SLP144 T01610083
 
KHVN - New Haven/Tweed, Connecticut, USA
Distance from station: SE 27mi, 44km
Updated: Sat, 18-Apr-2015 11:53am EDT
Few Clouds
Few Clouds
 Wind from SSW
Wind: SSW 8 mph , 13 km/h
Temperature: 61°F , 16°C
Dew Point: 46°F , 8°C
Humidity: 59%
Barometer: 29.96 inHg , 1014.6 hPa
Clouds: Few Clouds
Visibility: 10 miles , 16 km
Cloud details: Few Clouds 7000 ft
2015/04/18 15:53 KHVN 181553Z 20007KT 10SM FEW070 16/08 A2996 RMK AO2 SLP144 T01560078
KHFD - Hartford/Brainar, Connecticut, USA
Distance from station: ENE 32mi, 52km
Updated: Sat, 18-Apr-2015 11:53am EDT
Clear
Clear
 Wind from varies
Wind: varies 6 mph , 9 km/h
Temperature: 72°F , 22°C
Dew Point: 39°F , 4°C
Humidity: 31%
Barometer: 29.93 inHg , 1013.5 hPa
Clouds: Clear
Visibility: 10 miles , 16 km
2015/04/18 15:53 KHFD 181553Z VRB05KT 10SM CLR 22/04 A2993 RMK AO2 SLP134 T02170039
 
KPOU - Poughkeepsie, New York, USA
Distance from station: W 35mi, 56km
Updated: Sat, 18-Apr-2015 11:53am EDT
Clear
Clear
 Wind from SSW
Wind: SSW 8 mph , 13 km/h
Temperature: 72°F , 22°C
Dew Point: 43°F , 6°C
Humidity: 36%
Barometer: 29.93 inHg , 1013.5 hPa
Clouds: Clear
Visibility: 10 miles , 16 km
2015/04/18 15:53 KPOU 181553Z 21007KT 10SM CLR 22/06 A2993 RMK AO2 SLP132 T02170061
KBDL - Windsor Locks, Connecticut, USA
Distance from station: NE 38mi, 62km
Updated: Sat, 18-Apr-2015 11:51am EDT
Few Clouds
Few Clouds
 Wind from calm
Wind: Calm
Temperature: 72°F , 22°C
Dew Point: 39°F , 4°C
Humidity: 31%
Barometer: 29.91 inHg , 1012.9 hPa
Clouds: Few Clouds
Visibility: 10 miles , 16 km
Cloud details: Few Clouds 3000 ft
Few Clouds 25000 ft
2015/04/18 15:51 KBDL 181551Z 00000KT 10SM FEW030 FEW250 22/04 A2991 RMK AO2 SLP129 T02220039
 
KSNC - Chester, Connecticut, USA
Distance from station: ESE 39mi, 63km
Updated: Sat, 18-Apr-2015 12:15pm EDT
Clear
Clear
 Wind from WNW
Wind: WNW 6 mph , 9 km/h
Temperature: 70°F , 21°C
Dew Point: 39°F , 4°C
Humidity: 33%
Barometer: 29.93 inHg , 1013.5 hPa
Clouds: Clear
Visibility: 10 miles , 16 km
2015/04/18 16:15 KSNC 181615Z AUTO 30005KT 10SM CLR 21/04 A2993 RMK AO2
KHPN - White Plains, New York, USA
Distance from station: SW 42mi, 67km
Updated: Sat, 18-Apr-2015 11:56am EDT
Clear
Clear
 Wind from W
Wind: W 6 mph , 9 km/h
Temperature: 72°F , 22°C
Dew Point: 41°F , 5°C
Humidity: 33%
Barometer: 29.96 inHg , 1014.6 hPa
Clouds: Clear
Visibility: 10 miles , 16 km
2015/04/18 15:56 KHPN 181556Z 28005KT 10SM CLR 22/05 A2996 RMK AO2 SLP142 T02170050
 
KSWF - Newburgh/Stewart, New York, USA
Distance from station: W 45mi, 72km
Updated: Sat, 18-Apr-2015 11:45am EDT
Clear
Clear
 Wind from WNW
Wind: WNW 10 mph , 17 km/h, Gust: 17 mph , 28 km/h
Temperature: 70°F , 21°C
Dew Point: 45°F , 7°C
Humidity: 40%
Barometer: 29.97 inHg , 1014.9 hPa
Clouds: Clear
Visibility: 20 miles , 32 km
2015/04/18 15:45 KSWF 181545Z 30009G15KT 20SM SKC 21/07 A2997
KBAF - Westfield, Massachusetts, USA
Distance from station: NNE 50mi, 80km
Updated: Sat, 18-Apr-2015 11:53am EDT
Few Clouds
Few Clouds
 Wind from NW
Wind: NW 10 mph , 17 km/h
Temperature: 72°F , 22°C
Dew Point: 39°F , 4°C
Humidity: 31%
Barometer: 29.91 inHg , 1012.9 hPa
Clouds: Few Clouds
Visibility: 10 miles , 16 km
Cloud details: Few Clouds 6500 ft
2015/04/18 15:53 KBAF 181553Z 32009KT 10SM FEW065 22/04 A2991 RMK AO2 SLP129 T02170039